San Pedro Sula, Honduras
Current Conditions -  °F | °C
As of 8:00 PM on Wednesday 22 Oct 2014 (Local Time) from MHLM Reporting Station
Scattered Clouds Scattered Clouds  
Wind Chill: 81°   Ceiling: Unl
Heat Index: 88°   Visibility: 6mi
Dew Point: 79°   Wind: 0mph
Humidity: 94%   Direction: NA
Pressure: 29.77"   Gusts: NA
Location:  15.47°N, 88.03°W
Report Text: MHLM 230200Z 00000KT 9999 FEW026 SCT250 27/26 Q1008 A2977 NOSIG
Loading
Personal Weather Stations






























Interactive Weather Map New forecast layout! Learn more

10-Day Weather Forecast

Advertisements
Track Severe Weather on mobile